createdAt,value
2023-05-17T00:00:42.058Z,14.39
2023-05-17T00:03:09.497Z,14.35
2023-05-17T00:05:36.628Z,14.36
2023-05-17T00:08:03.866Z,14.33
2023-05-17T00:10:31.321Z,14.35
2023-05-17T00:12:58.670Z,14.25
2023-05-17T00:15:25.896Z,14.16
2023-05-17T00:17:55.519Z,14.13
2023-05-17T00:20:22.825Z,14.12
2023-05-17T00:22:50.040Z,14.04
2023-05-17T00:25:17.622Z,14.00
2023-05-17T00:27:44.743Z,13.96
2023-05-17T00:30:11.954Z,13.96
2023-05-17T00:32:39.513Z,13.94
2023-05-17T00:35:06.974Z,13.91
2023-05-17T00:37:34.130Z,13.87
2023-05-17T00:40:01.520Z,13.84
2023-05-17T00:42:28.622Z,13.76
2023-05-17T00:44:55.798Z,13.78
2023-05-17T00:47:23.406Z,13.80
2023-05-17T00:49:51.648Z,13.90
2023-05-17T00:52:18.790Z,13.90
2023-05-17T00:54:46.588Z,13.91
2023-05-17T00:57:14.360Z,13.93
2023-05-17T00:59:42.415Z,13.94
2023-05-17T01:02:09.801Z,13.85
2023-05-17T01:04:37.693Z,13.86
2023-05-17T01:07:06.909Z,13.87
2023-05-17T01:09:34.326Z,13.90
2023-05-17T01:12:32.452Z,13.91
2023-05-17T01:15:20.062Z,13.96
2023-05-17T01:17:56.587Z,13.98
2023-05-17T01:20:36.301Z,14.00
2023-05-17T01:23:31.968Z,13.97
2023-05-17T01:26:02.285Z,13.98
2023-05-17T01:28:29.868Z,13.98
2023-05-17T01:30:57.737Z,13.95
2023-05-17T01:33:25.731Z,13.94
2023-05-17T01:35:53.035Z,13.94
2023-05-17T01:38:20.977Z,13.91
2023-05-17T01:40:55.229Z,13.83
2023-05-17T01:43:27.500Z,13.75
2023-05-17T01:46:09.487Z,13.64
2023-05-17T01:48:40.459Z,13.62
2023-05-17T01:51:09.651Z,13.56
2023-05-17T01:53:46.952Z,13.44
2023-05-17T01:56:21.565Z,13.38
2023-05-17T01:58:49.037Z,13.26
2023-05-17T02:01:18.812Z,13.19
2023-05-17T02:03:50.126Z,13.07
2023-05-17T02:06:17.772Z,12.99
2023-05-17T02:08:46.066Z,12.95
2023-05-17T02:11:13.140Z,12.90
2023-05-17T02:13:40.588Z,12.83
2023-05-17T02:16:08.134Z,12.84
2023-05-17T02:18:35.517Z,12.96
2023-05-17T02:21:03.804Z,12.92
2023-05-17T02:23:30.918Z,12.84
2023-05-17T02:25:57.932Z,12.80
2023-05-17T02:28:25.311Z,12.76
2023-05-17T02:30:53.069Z,12.69
2023-05-17T02:33:20.210Z,12.66
2023-05-17T02:35:50.069Z,12.62
2023-05-17T02:38:19.805Z,12.59
2023-05-17T02:40:46.900Z,12.58
2023-05-17T02:43:14.327Z,12.58
2023-05-17T02:45:41.512Z,12.54
2023-05-17T02:48:08.672Z,12.46
2023-05-17T02:50:36.121Z,12.45
2023-05-17T02:53:03.238Z,12.51
2023-05-17T02:55:30.636Z,12.57
2023-05-17T02:57:58.331Z,12.65
2023-05-17T03:00:25.795Z,12.69
2023-05-17T03:02:53.545Z,12.75
2023-05-17T03:05:21.039Z,12.89
2023-05-17T03:07:48.403Z,12.94
2023-05-17T03:10:16.284Z,12.92
2023-05-17T03:12:44.081Z,12.96
2023-05-17T03:15:11.482Z,12.99
2023-05-17T03:17:38.697Z,13.01
2023-05-17T03:20:07.950Z,12.92
2023-05-17T03:22:35.701Z,12.93
2023-05-17T03:25:04.154Z,12.95
2023-05-17T03:27:32.778Z,12.94
2023-05-17T03:30:00.501Z,12.94
2023-05-17T03:32:28.694Z,12.89
2023-05-17T03:34:56.107Z,12.77
2023-05-17T03:37:23.549Z,12.72
2023-05-17T03:39:50.672Z,12.65
2023-05-17T03:42:18.189Z,12.65
2023-05-17T03:44:45.899Z,12.58
2023-05-17T03:47:14.335Z,12.56
2023-05-17T03:49:42.968Z,12.54
2023-05-17T03:52:10.325Z,12.51
2023-05-17T03:54:38.762Z,12.47
2023-05-17T03:57:06.665Z,12.49
2023-05-17T03:59:33.926Z,12.43
2023-05-17T04:02:01.260Z,12.45
2023-05-17T04:04:29.166Z,12.44
2023-05-17T04:06:56.387Z,12.43
2023-05-17T04:09:23.546Z,12.52
2023-05-17T04:11:51.129Z,12.52
2023-05-17T04:14:19.049Z,12.52
2023-05-17T04:16:47.059Z,12.53
2023-05-17T04:19:14.588Z,12.58
2023-05-17T04:21:41.785Z,12.62
2023-05-17T04:24:08.917Z,12.65
2023-05-17T04:26:36.474Z,12.62
2023-05-17T04:29:03.592Z,12.64
2023-05-17T04:31:31.981Z,12.67
2023-05-17T04:34:00.740Z,12.75
2023-05-17T04:36:28.473Z,12.79
2023-05-17T04:38:56.216Z,12.79
2023-05-17T04:41:24.819Z,12.90
2023-05-17T04:43:51.845Z,12.98
2023-05-17T04:46:19.217Z,13.02
2023-05-17T04:48:47.314Z,13.04
2023-05-17T04:51:14.663Z,13.08
2023-05-17T04:53:42.032Z,13.13
2023-05-17T04:56:09.496Z,13.17
2023-05-17T04:58:36.784Z,13.22
2023-05-17T05:01:04.779Z,13.25
2023-05-17T05:03:32.365Z,13.26
2023-05-17T05:05:59.601Z,13.35
2023-05-17T05:08:27.222Z,13.39
2023-05-17T05:10:55.368Z,13.50
2023-05-17T05:13:23.268Z,13.50
2023-05-17T05:15:51.039Z,13.57
2023-05-17T05:18:19.601Z,13.65
2023-05-17T05:20:48.627Z,13.73
2023-05-17T05:23:16.003Z,13.76
2023-05-17T05:25:44.402Z,13.94
2023-05-17T05:28:12.709Z,14.01
2023-05-17T05:30:40.045Z,13.98
2023-05-17T05:33:07.751Z,14.04
2023-05-17T05:35:34.945Z,14.11
2023-05-17T05:38:03.451Z,14.12
2023-05-17T05:40:31.412Z,14.10
2023-05-17T05:42:58.825Z,14.08
2023-05-17T05:45:25.886Z,14.13
2023-05-17T05:47:53.643Z,14.16
2023-05-17T05:50:20.999Z,14.07
2023-05-17T05:52:48.311Z,14.18
2023-05-17T05:55:15.815Z,14.11
2023-05-17T05:57:43.416Z,14.18
2023-05-17T06:00:12.040Z,14.27
2023-05-17T06:02:40.063Z,14.13
2023-05-17T06:05:08.309Z,14.12
2023-05-17T06:07:35.544Z,14.14
2023-05-17T06:10:02.715Z,14.22
2023-05-17T06:12:30.051Z,14.27
2023-05-17T06:14:57.667Z,14.45
2023-05-17T06:17:24.856Z,14.35
2023-05-17T06:19:52.742Z,14.38
2023-05-17T06:22:19.967Z,14.46
2023-05-17T06:24:47.217Z,14.41
2023-05-17T06:27:14.621Z,14.49
2023-05-17T06:29:41.886Z,14.43
2023-05-17T06:32:08.923Z,14.36
2023-05-17T06:34:36.450Z,14.43
2023-05-17T06:37:03.702Z,14.48
2023-05-17T06:39:30.770Z,14.52
2023-05-17T06:41:58.205Z,14.46
2023-05-17T06:44:25.386Z,14.41
2023-05-17T06:46:52.735Z,14.41
2023-05-17T06:49:20.099Z,14.35
2023-05-17T06:51:48.828Z,14.23
2023-05-17T06:54:15.905Z,14.21
2023-05-17T06:56:43.416Z,14.27
2023-05-17T06:59:10.523Z,14.46
2023-05-17T07:01:37.609Z,14.65
2023-05-17T07:04:05.288Z,14.85
2023-05-17T07:06:32.622Z,14.85
2023-05-17T07:09:00.246Z,14.87
2023-05-17T07:11:27.610Z,14.79
2023-05-17T07:13:54.716Z,14.83
2023-05-17T07:16:21.853Z,14.76
2023-05-17T07:18:49.280Z,14.72
2023-05-17T07:21:16.539Z,14.70
2023-05-17T07:23:44.111Z,14.58
2023-05-17T07:26:11.517Z,14.52
2023-05-17T07:28:39.460Z,14.57
2023-05-17T07:31:07.303Z,14.65
2023-05-17T07:33:34.672Z,14.49
2023-05-17T07:36:02.808Z,14.68
2023-05-17T07:38:29.938Z,14.85
2023-05-17T07:40:57.442Z,14.81
2023-05-17T07:43:24.866Z,14.95
2023-05-17T07:45:51.966Z,14.80
2023-05-17T07:48:19.665Z,14.60
2023-05-17T07:50:47.397Z,14.50
2023-05-17T07:53:14.544Z,14.51
2023-05-17T07:55:46.750Z,14.54
2023-05-17T07:58:14.252Z,14.46
2023-05-17T08:00:42.590Z,14.53
2023-05-17T08:03:10.100Z,14.65
2023-05-17T08:05:38.273Z,14.65
2023-05-17T08:08:05.443Z,14.45
2023-05-17T08:10:36.034Z,14.60
2023-05-17T08:13:04.634Z,14.52
2023-05-17T08:15:31.864Z,14.59
2023-05-17T08:18:00.372Z,14.51
2023-05-17T08:20:29.024Z,14.33
2023-05-17T08:22:56.503Z,14.41
2023-05-17T08:25:24.376Z,14.52
2023-05-17T08:27:51.601Z,14.44
2023-05-17T08:30:28.582Z,14.29
2023-05-17T08:32:56.820Z,14.29
2023-05-17T08:35:26.254Z,14.18
2023-05-17T08:37:54.891Z,14.25
2023-05-17T08:40:22.473Z,14.28
2023-05-17T08:42:52.943Z,14.23
2023-05-17T08:45:20.389Z,14.16
2023-05-17T08:47:49.176Z,14.26
2023-05-17T08:50:17.590Z,14.21
2023-05-17T08:52:46.444Z,14.08
2023-05-17T08:55:16.422Z,14.27
2023-05-17T08:57:44.114Z,14.30
2023-05-17T09:00:15.515Z,14.44
2023-05-17T09:02:44.046Z,14.60
2023-05-17T09:05:11.478Z,14.74
2023-05-17T09:07:38.749Z,15.02
2023-05-17T09:10:06.816Z,15.15
2023-05-17T09:12:37.209Z,15.19
2023-05-17T09:15:15.456Z,15.11
2023-05-17T09:17:43.480Z,14.98
2023-05-17T09:20:12.067Z,14.80
2023-05-17T09:22:39.623Z,14.89
2023-05-17T09:25:08.012Z,14.99
2023-05-17T09:27:36.222Z,14.93
2023-05-17T09:30:03.697Z,15.03
2023-05-17T09:32:33.295Z,15.17
2023-05-17T09:35:00.476Z,15.28
2023-05-17T09:37:28.240Z,15.27
2023-05-17T09:39:56.413Z,15.23
2023-05-17T09:42:26.436Z,15.14
2023-05-17T09:44:57.710Z,14.78
2023-05-17T09:47:34.198Z,14.52
2023-05-17T09:50:03.673Z,14.56
2023-05-17T09:52:32.431Z,14.38
2023-05-17T09:55:00.546Z,14.38
2023-05-17T09:57:29.116Z,14.38
2023-05-17T09:59:57.825Z,14.50
2023-05-17T10:02:29.212Z,14.20
2023-05-17T10:04:58.272Z,13.95
2023-05-17T10:07:26.897Z,13.91
2023-05-17T10:09:56.029Z,13.98
2023-05-17T10:12:25.775Z,13.90
2023-05-17T10:14:56.967Z,13.83
2023-05-17T10:17:27.530Z,13.76
2023-05-17T10:19:54.875Z,13.65
2023-05-17T10:22:23.928Z,13.73
2023-05-17T10:24:52.030Z,13.73
2023-05-17T10:27:20.924Z,14.09
2023-05-17T10:29:50.391Z,14.32
2023-05-17T10:32:19.484Z,14.34
2023-05-17T10:34:54.480Z,14.45
2023-05-17T10:37:30.303Z,14.72
2023-05-17T10:39:57.608Z,15.00
2023-05-17T10:42:26.172Z,15.09
2023-05-17T10:44:54.647Z,15.00
2023-05-17T10:47:22.342Z,15.07
2023-05-17T10:49:51.580Z,15.03
2023-05-17T10:52:22.109Z,14.63
2023-05-17T10:54:52.286Z,14.79
2023-05-17T10:57:49.308Z,14.52
2023-05-17T11:00:21.879Z,14.45
2023-05-17T11:02:50.784Z,14.22
2023-05-17T11:05:25.497Z,14.09
2023-05-17T11:07:53.073Z,14.24
2023-05-17T11:10:20.276Z,14.36
2023-05-17T11:12:53.968Z,14.42
2023-05-17T11:15:28.144Z,14.46
2023-05-17T11:17:58.272Z,14.53
2023-05-17T11:20:25.822Z,14.72
2023-05-17T11:22:58.842Z,14.83
2023-05-17T11:25:31.310Z,15.11
2023-05-17T11:27:59.793Z,15.41
2023-05-17T11:30:29.404Z,15.60
2023-05-17T11:33:01.522Z,15.88
2023-05-17T11:35:32.873Z,15.49
2023-05-17T11:38:19.144Z,15.24
2023-05-17T11:40:48.620Z,15.15
2023-05-17T11:43:23.383Z,14.92
2023-05-17T11:45:57.370Z,14.98
2023-05-17T11:48:26.556Z,14.68
2023-05-17T11:50:56.443Z,14.52
2023-05-17T11:53:25.415Z,14.34
2023-05-17T11:55:53.025Z,14.19
2023-05-17T11:58:29.293Z,14.39
2023-05-17T12:00:58.934Z,14.32
2023-05-17T12:03:29.100Z,14.55
2023-05-17T12:06:04.189Z,14.52
2023-05-17T12:08:34.364Z,14.42
2023-05-17T12:11:02.160Z,14.92
2023-05-17T12:13:31.125Z,14.97
2023-05-17T12:16:01.591Z,15.36
2023-05-17T12:18:37.015Z,15.46
2023-05-17T12:21:06.180Z,15.55
2023-05-17T12:23:35.312Z,15.31
2023-05-17T12:26:11.764Z,15.42
2023-05-17T12:28:40.930Z,15.41
2023-05-17T12:31:13.937Z,15.34
2023-05-17T12:33:42.708Z,15.26
2023-05-17T12:36:11.460Z,15.28
2023-05-17T12:38:41.332Z,15.49
2023-05-17T12:41:13.498Z,15.48
2023-05-17T12:43:40.848Z,15.32
2023-05-17T12:46:18.877Z,15.23
2023-05-17T12:48:47.520Z,14.98
2023-05-17T12:51:20.882Z,15.05
2023-05-17T12:53:53.596Z,15.14
2023-05-17T12:56:23.617Z,14.98
2023-05-17T12:59:18.764Z,15.23
2023-05-17T13:01:47.486Z,15.11
2023-05-17T13:04:16.177Z,14.90
2023-05-17T13:06:53.168Z,14.72
2023-05-17T13:09:22.220Z,14.80
2023-05-17T13:11:56.458Z,14.64
2023-05-17T13:14:37.691Z,14.80
2023-05-17T13:17:06.212Z,14.89
2023-05-17T13:19:35.786Z,14.97
2023-05-17T13:22:04.218Z,15.17
2023-05-17T13:24:37.158Z,15.00
2023-05-17T13:27:04.967Z,15.19
2023-05-17T13:29:39.511Z,15.08
2023-05-17T13:32:09.556Z,14.70
2023-05-17T13:34:36.919Z,14.81
2023-05-17T13:37:05.040Z,14.72
2023-05-17T13:39:32.640Z,14.59
2023-05-17T13:42:00.196Z,14.68
2023-05-17T13:44:27.696Z,14.61
2023-05-17T13:46:55.167Z,14.52
2023-05-17T13:49:22.398Z,14.58
2023-05-17T13:51:49.620Z,14.45
2023-05-17T13:54:17.342Z,14.84
2023-05-17T13:56:44.438Z,15.32
2023-05-17T13:59:11.542Z,14.99
2023-05-17T14:01:40.829Z,14.96
2023-05-17T14:04:08.466Z,14.16
2023-05-17T14:06:35.775Z,14.04
2023-05-17T14:09:02.985Z,13.96
2023-05-17T14:11:31.202Z,13.70
2023-05-17T14:13:59.103Z,13.91
2023-05-17T14:16:26.211Z,13.57
2023-05-17T14:18:53.668Z,13.36
2023-05-17T14:21:21.110Z,13.61
2023-05-17T14:23:48.225Z,13.57
2023-05-17T14:26:19.207Z,13.46
2023-05-17T14:28:46.232Z,13.32
2023-05-17T14:31:13.274Z,13.09
2023-05-17T14:33:40.666Z,12.91
2023-05-17T14:36:07.835Z,13.03
2023-05-17T14:38:34.948Z,13.11
2023-05-17T14:41:02.452Z,13.03
2023-05-17T14:43:29.616Z,13.17
2023-05-17T14:45:56.731Z,12.95
2023-05-17T14:48:24.277Z,13.00
2023-05-17T14:50:53.291Z,12.90
2023-05-17T14:53:20.747Z,12.89
2023-05-17T14:55:48.237Z,12.74
2023-05-17T14:58:15.552Z,12.88
2023-05-17T15:00:48.545Z,12.91
2023-05-17T15:03:21.764Z,12.73
2023-05-17T15:05:56.604Z,12.67
2023-05-17T15:08:24.536Z,12.49
2023-05-17T15:10:51.846Z,12.35
2023-05-17T15:13:18.979Z,12.34
2023-05-17T15:15:49.574Z,12.15
2023-05-17T15:18:16.723Z,12.05
2023-05-17T15:20:43.924Z,11.88
2023-05-17T15:23:12.362Z,11.69
2023-05-17T15:25:39.445Z,11.88
2023-05-17T15:28:07.326Z,11.94
2023-05-17T15:30:34.787Z,11.97
2023-05-17T15:33:02.819Z,12.16
2023-05-17T15:35:31.464Z,12.05
2023-05-17T15:38:01.903Z,12.05
2023-05-17T15:40:29.054Z,12.18
2023-05-17T15:42:56.229Z,12.24
2023-05-17T15:45:23.804Z,12.13
2023-05-17T15:47:50.921Z,11.98
2023-05-17T15:50:18.154Z,11.93
2023-05-17T15:52:48.812Z,11.99
2023-05-17T15:55:16.338Z,11.94
2023-05-17T15:57:43.496Z,11.88
2023-05-17T16:00:11.786Z,11.95
2023-05-17T16:02:39.217Z,11.79
2023-05-17T16:05:07.579Z,11.67
2023-05-17T16:07:34.678Z,11.58
2023-05-17T16:10:02.111Z,11.52
2023-05-17T16:12:29.291Z,11.51
2023-05-17T16:14:57.387Z,11.26
2023-05-17T16:17:24.830Z,11.11
2023-05-17T16:19:52.189Z,11.13
2023-05-17T16:22:19.668Z,10.95
2023-05-17T16:24:47.047Z,10.87
2023-05-17T16:27:14.144Z,10.79
2023-05-17T16:29:41.265Z,10.83
2023-05-17T16:32:08.738Z,10.84
2023-05-17T16:34:36.472Z,10.79
2023-05-17T16:37:07.274Z,10.95
2023-05-17T16:39:34.862Z,10.88
2023-05-17T16:42:02.064Z,10.68
2023-05-17T16:44:29.195Z,10.66
2023-05-17T16:46:56.751Z,10.68
2023-05-17T16:49:24.305Z,10.65
2023-05-17T16:51:52.372Z,10.60
2023-05-17T16:54:19.765Z,10.51
2023-05-17T16:56:46.921Z,10.52
2023-05-17T16:59:15.662Z,10.46
2023-05-17T17:01:43.133Z,10.42
2023-05-17T17:04:10.387Z,10.38
2023-05-17T17:06:38.125Z,10.38
2023-05-17T17:09:08.379Z,10.30
2023-05-17T17:11:35.805Z,10.25
2023-05-17T17:14:03.192Z,10.21
2023-05-17T17:16:31.702Z,10.21
2023-05-17T17:18:59.412Z,10.16
2023-05-17T17:21:26.601Z,10.06
2023-05-17T17:23:54.006Z,10.04
2023-05-17T17:26:22.030Z,10.00
2023-05-17T17:28:49.210Z,9.91
2023-05-17T17:31:18.203Z,9.89
2023-05-17T17:33:45.389Z,9.88
2023-05-17T17:36:12.573Z,9.81
2023-05-17T17:38:39.998Z,9.81
2023-05-17T17:41:07.151Z,9.82
2023-05-17T17:43:34.267Z,9.72
2023-05-17T17:46:01.745Z,9.67
2023-05-17T17:48:29.023Z,9.67
2023-05-17T17:50:59.095Z,9.63
2023-05-17T17:53:27.496Z,9.54
2023-05-17T17:55:54.849Z,9.47
2023-05-17T17:58:21.986Z,9.38
2023-05-17T18:00:49.437Z,9.33
2023-05-17T18:03:16.879Z,9.28
2023-05-17T18:05:43.932Z,9.27
2023-05-17T18:08:11.004Z,9.22
2023-05-17T18:10:38.320Z,9.18
2023-05-17T18:13:05.626Z,9.09
2023-05-17T18:15:32.719Z,9.11
2023-05-17T18:18:00.274Z,9.09
2023-05-17T18:20:27.629Z,9.02
2023-05-17T18:22:54.823Z,9.04
2023-05-17T18:25:22.240Z,9.02
2023-05-17T18:27:49.287Z,8.99
2023-05-17T18:30:17.253Z,8.99
2023-05-17T18:32:45.005Z,8.95
2023-05-17T18:35:12.179Z,8.97
2023-05-17T18:37:39.189Z,8.89
2023-05-17T18:40:07.363Z,8.92
2023-05-17T18:42:34.355Z,8.91
2023-05-17T18:45:01.370Z,8.93
2023-05-17T18:47:28.796Z,8.93
2023-05-17T18:49:56.146Z,8.95
2023-05-17T18:52:23.308Z,8.92
2023-05-17T18:54:50.734Z,8.88
2023-05-17T18:57:17.918Z,8.84
2023-05-17T18:59:45.140Z,8.84
2023-05-17T19:02:12.583Z,8.78
2023-05-17T19:04:40.494Z,8.77
2023-05-17T19:07:07.781Z,8.74
2023-05-17T19:09:35.404Z,8.70
2023-05-17T19:12:02.690Z,8.66
2023-05-17T19:14:29.850Z,8.70
2023-05-17T19:16:57.250Z,8.74
2023-05-17T19:19:26.074Z,8.77
2023-05-17T19:21:53.292Z,8.81
2023-05-17T19:24:23.339Z,8.84
2023-05-17T19:26:50.608Z,8.84
2023-05-17T19:29:17.639Z,8.80
2023-05-17T19:31:45.327Z,8.74
2023-05-17T19:34:12.432Z,8.76
2023-05-17T19:36:39.864Z,8.74
2023-05-17T19:39:07.536Z,8.69
2023-05-17T19:41:34.588Z,8.65
2023-05-17T19:44:01.662Z,8.69
2023-05-17T19:46:29.096Z,8.70
2023-05-17T19:48:57.342Z,8.68
2023-05-17T19:51:24.363Z,8.70
2023-05-17T19:53:54.011Z,8.74
2023-05-17T19:56:24.177Z,8.70
2023-05-17T19:58:52.556Z,8.68
2023-05-17T20:01:21.722Z,8.65
2023-05-17T20:03:49.468Z,8.66
2023-05-17T20:06:16.729Z,8.65
2023-05-17T20:08:43.820Z,8.67
2023-05-17T20:11:11.350Z,8.63
2023-05-17T20:13:40.351Z,8.60
2023-05-17T20:16:12.829Z,8.59
2023-05-17T20:18:42.713Z,8.60
2023-05-17T20:21:11.567Z,8.63
2023-05-17T20:23:38.741Z,8.63
2023-05-17T20:26:06.241Z,8.67
2023-05-17T20:28:33.381Z,8.65
2023-05-17T20:31:00.864Z,8.73
2023-05-17T20:33:28.322Z,8.74
2023-05-17T20:35:55.625Z,8.73
2023-05-17T20:38:22.771Z,8.80
2023-05-17T20:40:51.983Z,8.78
2023-05-17T20:43:19.855Z,8.77
2023-05-17T20:45:47.073Z,8.73
2023-05-17T20:48:14.505Z,8.71
2023-05-17T20:50:41.825Z,8.73
2023-05-17T20:53:10.621Z,8.72
2023-05-17T20:55:38.315Z,8.72
2023-05-17T20:58:05.704Z,8.72
2023-05-17T21:00:32.831Z,8.74
2023-05-17T21:03:00.391Z,8.74
2023-05-17T21:05:28.466Z,8.81
2023-05-17T21:07:56.640Z,8.85
2023-05-17T21:10:24.090Z,8.88
2023-05-17T21:12:51.191Z,8.92
2023-05-17T21:15:18.372Z,8.93
2023-05-17T21:17:45.939Z,8.99
2023-05-17T21:20:13.770Z,9.04
2023-05-17T21:22:40.791Z,9.05
2023-05-17T21:25:09.354Z,9.07
2023-05-17T21:27:36.780Z,9.12
2023-05-17T21:30:04.022Z,9.12
2023-05-17T21:32:31.392Z,9.08
2023-05-17T21:34:59.836Z,9.10
2023-05-17T21:37:26.970Z,9.08
2023-05-17T21:39:54.300Z,9.12
2023-05-17T21:42:21.466Z,9.13
2023-05-17T21:44:48.825Z,9.13
2023-05-17T21:47:16.203Z,9.15
2023-05-17T21:49:43.271Z,9.16
2023-05-17T21:52:10.444Z,9.18
2023-05-17T21:54:37.975Z,9.18
2023-05-17T21:57:05.388Z,9.19
2023-05-17T21:59:32.803Z,9.17
2023-05-17T22:02:00.316Z,9.16
2023-05-17T22:04:27.820Z,9.19
2023-05-17T22:06:56.059Z,9.18
2023-05-17T22:09:23.188Z,9.16
2023-05-17T22:11:50.592Z,9.15
2023-05-17T22:14:17.715Z,9.14
2023-05-17T22:16:44.837Z,9.09
2023-05-17T22:19:12.249Z,9.05
2023-05-17T22:21:39.377Z,9.06
2023-05-17T22:24:06.844Z,9.05
2023-05-17T22:26:34.227Z,9.02
2023-05-17T22:29:01.656Z,9.09
2023-05-17T22:31:28.961Z,9.06
2023-05-17T22:33:56.568Z,9.03
2023-05-17T22:36:24.864Z,9.03
2023-05-17T22:38:52.217Z,9.05
2023-05-17T22:41:19.679Z,9.03
2023-05-17T22:43:46.778Z,9.10
2023-05-17T22:46:14.031Z,9.04
2023-05-17T22:48:41.526Z,9.08
2023-05-17T22:51:08.749Z,9.05
2023-05-17T22:53:35.886Z,8.99
2023-05-17T22:56:03.307Z,9.00
2023-05-17T22:58:30.549Z,9.01
2023-05-17T23:00:57.724Z,9.01
2023-05-17T23:03:25.628Z,9.01
2023-05-17T23:06:03.021Z,8.97
2023-05-17T23:08:30.952Z,8.94
2023-05-17T23:10:58.813Z,8.96
2023-05-17T23:13:26.225Z,8.95
2023-05-17T23:15:53.935Z,8.97
2023-05-17T23:18:21.171Z,8.99
2023-05-17T23:20:49.004Z,9.02
2023-05-17T23:23:16.615Z,9.02
2023-05-17T23:25:48.456Z,9.03
2023-05-17T23:28:15.751Z,9.01
2023-05-17T23:30:44.617Z,8.99
2023-05-17T23:33:11.811Z,8.97
2023-05-17T23:35:39.113Z,8.99
2023-05-17T23:38:07.281Z,9.00
2023-05-17T23:40:34.460Z,8.95
2023-05-17T23:43:01.575Z,8.93
2023-05-17T23:45:29.954Z,8.94
2023-05-17T23:48:00.529Z,8.93
2023-05-17T23:50:27.877Z,8.99
2023-05-17T23:52:56.014Z,8.88
2023-05-17T23:55:23.184Z,8.89
2023-05-17T23:57:50.284Z,8.84
